createdAt,value
2022-11-04T11:36:19.323Z,95133.63
2022-11-04T11:37:27.459Z,95128.59
2022-11-04T11:38:32.088Z,95128.00
2022-11-04T11:39:38.570Z,95128.66
2022-11-04T11:40:52.134Z,95125.94
2022-11-04T11:42:10.779Z,95125.50
2022-11-04T11:43:23.505Z,95119.16
2022-11-04T11:44:33.218Z,95123.00
2022-11-04T11:45:39.992Z,95123.53
2022-11-04T11:46:42.817Z,95122.34
2022-11-04T11:47:47.975Z,95131.13
2022-11-04T11:48:52.248Z,95128.06
2022-11-04T11:50:09.056Z,95129.13
2022-11-04T11:51:31.558Z,95130.53
2022-11-04T11:52:37.063Z,95128.78
2022-11-04T11:53:45.862Z,95136.84
2022-11-04T11:54:56.395Z,95128.84
2022-11-04T11:56:11.639Z,95133.59
2022-11-04T11:57:31.875Z,95127.91
2022-11-04T12:01:47.033Z,95129.88
2022-11-04T12:02:59.500Z,95133.88
2022-11-04T12:10:49.192Z,95128.53
2022-11-04T12:12:08.330Z,95139.09
2022-11-04T12:13:25.629Z,95129.81
2022-11-04T12:14:48.500Z,95133.25
2022-11-04T12:16:18.195Z,95134.34
2022-11-04T12:17:38.221Z,95133.34
2022-11-04T12:19:29.680Z,95141.66
2022-11-04T12:20:52.889Z,95145.13
2022-11-04T12:22:06.527Z,95138.00
2022-11-04T12:23:21.808Z,95147.00
2022-11-04T17:02:46.530Z,95332.06
2022-11-04T17:03:51.544Z,95335.56
2022-11-04T17:04:54.004Z,95333.16
2022-11-04T17:06:02.526Z,95341.72
2022-11-04T17:07:04.755Z,95333.06
2022-11-04T17:08:09.527Z,95342.41
2022-11-04T17:09:23.004Z,95334.81
2022-11-04T17:10:29.747Z,95328.91
2022-11-04T17:11:34.502Z,95351.13
2022-11-04T17:12:36.774Z,95345.41
2022-11-04T17:13:41.743Z,95353.19
2022-11-04T17:14:46.810Z,95343.72
2022-11-04T17:15:51.773Z,95344.69
2022-11-04T17:16:54.069Z,95344.97
2022-11-04T17:18:01.481Z,95351.09
2022-11-04T17:19:03.828Z,95351.25
2022-11-04T17:20:10.117Z,95355.66
2022-11-04T17:21:17.850Z,95357.41
2022-11-04T17:22:22.898Z,95360.97
2022-11-04T17:23:27.778Z,95360.38
2022-11-04T17:24:33.075Z,95368.13
2022-11-04T17:25:37.991Z,95369.94
2022-11-04T17:26:40.668Z,95371.22
2022-11-04T17:27:45.539Z,95367.19
2022-11-04T17:28:47.790Z,95372.66
2022-11-04T17:29:52.590Z,95371.13
2022-11-04T17:30:57.614Z,95369.59
2022-11-04T17:32:02.908Z,95377.50
2022-11-04T17:33:13.032Z,95375.06
2022-11-04T17:34:18.048Z,95370.22
2022-11-04T17:35:20.622Z,95383.25
2022-11-04T17:36:25.405Z,95373.09
2022-11-04T17:37:27.709Z,95384.44
2022-11-04T17:38:32.528Z,95382.78
2022-11-04T17:39:37.368Z,95377.78
2022-11-04T17:40:54.777Z,95383.91
2022-11-04T17:42:11.910Z,95380.50
2022-11-04T17:43:29.083Z,95381.41
2022-11-04T17:44:33.952Z,95389.06
2022-11-04T17:45:36.209Z,95393.41
2022-11-04T17:46:41.923Z,95380.44
2022-11-04T17:47:46.620Z,95391.25
2022-11-04T17:48:51.351Z,95393.56
2022-11-04T17:49:56.054Z,95388.47
2022-11-04T17:50:58.212Z,95392.03
2022-11-04T17:52:02.975Z,95392.94
2022-11-04T17:53:05.111Z,95395.28
2022-11-04T17:54:10.110Z,95391.00
2022-11-04T17:55:17.971Z,95402.81
2022-11-04T17:56:23.906Z,95402.59
2022-11-04T17:57:28.767Z,95397.50
2022-11-04T17:58:30.901Z,95399.25
2022-11-04T17:59:37.048Z,95399.19
2022-11-04T18:00:39.331Z,95403.34
2022-11-04T18:01:45.146Z,95406.47
2022-11-04T18:02:52.039Z,95400.53
2022-11-04T18:03:58.169Z,95406.16
2022-11-04T18:05:04.120Z,95405.41
2022-11-04T18:06:07.135Z,95403.81
2022-11-04T18:07:11.856Z,95403.75
2022-11-04T18:08:13.934Z,95404.66
2022-11-04T18:09:19.339Z,95409.06
2022-11-04T18:10:21.524Z,95410.09
2022-11-04T18:11:39.888Z,95409.41
2022-11-04T18:12:45.269Z,95407.66
2022-11-04T18:13:47.360Z,95406.94
2022-11-04T18:14:52.178Z,95418.06
2022-11-04T18:15:57.080Z,95419.09
2022-11-04T18:16:59.241Z,95416.63
2022-11-04T18:18:04.015Z,95420.94
2022-11-04T18:19:08.934Z,95417.50
2022-11-04T18:20:17.496Z,95419.25
2022-11-04T18:21:19.992Z,95424.56
2022-11-04T18:22:24.720Z,95419.34
2022-11-04T18:23:26.867Z,95427.06
2022-11-04T18:24:31.960Z,95426.94
2022-11-04T18:25:34.282Z,95426.00
2022-11-04T18:26:39.155Z,95436.31
2022-11-04T18:27:41.311Z,95437.09
2022-11-04T18:28:46.235Z,95434.41
2022-11-04T18:29:51.027Z,95433.44
2022-11-04T18:30:53.348Z,95436.78
2022-11-04T18:31:58.148Z,95434.88
2022-11-04T18:33:03.354Z,95436.50
2022-11-04T18:34:11.040Z,95443.34
2022-11-04T18:35:15.905Z,95443.91
2022-11-04T18:36:18.359Z,95443.03
2022-11-04T18:37:23.394Z,95444.69
2022-11-04T18:38:25.571Z,95450.63
2022-11-04T18:39:30.455Z,95450.28
2022-11-04T18:40:36.163Z,95452.63
2022-11-04T18:41:39.925Z,95455.97
2022-11-04T18:42:44.860Z,95459.31
2022-11-04T18:43:47.187Z,95455.81
2022-11-04T18:44:52.080Z,95456.50
2022-11-04T18:45:54.483Z,95455.66
2022-11-04T18:46:59.557Z,95454.00
2022-11-04T18:48:01.795Z,95456.50
2022-11-04T18:49:06.742Z,95459.94
2022-11-04T18:50:14.909Z,95452.03
2022-11-04T18:51:22.249Z,95455.50
2022-11-04T18:52:27.101Z,95459.63
2022-11-04T18:53:29.305Z,95462.19
2022-11-04T18:54:34.322Z,95462.66
2022-11-04T18:55:36.562Z,95466.91
2022-11-04T18:56:41.414Z,95471.13
2022-11-04T18:57:46.272Z,95472.72
2022-11-04T18:58:49.451Z,95468.56
2022-11-04T18:59:54.427Z,95471.13
2022-11-04T19:00:56.915Z,95471.84
2022-11-04T19:02:01.955Z,95475.09
2022-11-04T19:03:04.438Z,95471.59
2022-11-04T19:04:13.245Z,95476.75
2022-11-04T19:05:21.053Z,95475.88
2022-11-04T19:06:25.608Z,95475.78
2022-11-04T19:07:30.523Z,95473.13
2022-11-04T19:08:33.212Z,95486.72
2022-11-04T19:09:46.450Z,95474.63
2022-11-04T19:11:00.698Z,95484.22
2022-11-04T19:12:19.518Z,95480.78
2022-11-04T19:13:24.541Z,95481.75
2022-11-04T19:14:26.889Z,95485.31
2022-11-04T19:15:32.437Z,95479.44
2022-11-04T19:16:37.851Z,95488.06
2022-11-04T19:17:40.002Z,95481.31
2022-11-04T19:18:44.894Z,95484.81
2022-11-04T19:19:49.974Z,95488.06
2022-11-04T19:20:57.497Z,95485.63
2022-11-04T19:22:00.038Z,95486.63
2022-11-04T19:23:04.972Z,95498.69
2022-11-04T19:24:12.266Z,95495.28
2022-11-04T19:25:14.660Z,95493.69
2022-11-04T19:26:22.162Z,95499.69
2022-11-04T19:27:25.234Z,95497.19
2022-11-04T19:28:40.759Z,95505.00
2022-11-04T19:29:52.106Z,95505.81
2022-11-04T19:31:05.264Z,95508.34
2022-11-04T19:32:13.830Z,95499.84
2022-11-04T19:33:19.354Z,95506.59
2022-11-04T19:34:24.213Z,95513.50
2022-11-04T19:35:29.045Z,95520.31
2022-11-04T19:36:38.333Z,95521.25
2022-11-04T19:37:42.032Z,95519.50
2022-11-04T19:38:47.469Z,95527.16
2022-11-04T19:39:50.039Z,95525.31
2022-11-04T19:40:55.636Z,95518.56
2022-11-04T19:42:12.823Z,95522.00
2022-11-04T19:43:15.357Z,95528.00
2022-11-04T19:44:23.816Z,95533.16
2022-11-04T19:45:26.042Z,95546.13
2022-11-04T19:46:31.045Z,95534.75
2022-11-04T19:47:33.484Z,95534.25
2022-11-04T19:48:38.406Z,95537.72
2022-11-04T19:49:41.150Z,95531.09
2022-11-04T19:50:48.935Z,95532.91
2022-11-04T19:51:54.176Z,95541.66
2022-11-04T19:52:59.372Z,95540.97
2022-11-04T19:54:05.306Z,95537.66
2022-11-04T19:55:08.386Z,95549.78
2022-11-04T19:56:20.873Z,95538.53
2022-11-04T19:57:27.616Z,95545.97
2022-11-04T19:58:33.935Z,95542.34
2022-11-04T20:00:04.818Z,95542.41
2022-11-04T20:01:47.590Z,95547.66
2022-11-04T20:03:06.621Z,95549.41
2022-11-04T20:04:50.695Z,95546.94
2022-11-04T20:06:27.096Z,95549.03
2022-11-04T20:08:09.537Z,95552.97
2022-11-04T20:09:41.028Z,95549.94
2022-11-04T20:10:55.300Z,95552.66
2022-11-04T20:12:20.389Z,95557.97
2022-11-04T20:13:41.880Z,95564.78
2022-11-04T20:16:41.478Z,95570.28
2022-11-04T20:17:48.556Z,95567.94
2022-11-04T20:18:57.606Z,95573.94
2022-11-04T20:20:22.612Z,95575.69
2022-11-04T20:21:49.859Z,95575.09
2022-11-04T20:23:12.119Z,95573.38
2022-11-04T20:24:27.578Z,95582.06
2022-11-04T20:25:46.424Z,95579.72
2022-11-04T20:26:49.948Z,95589.19
2022-11-04T20:28:06.359Z,95584.22
2022-11-04T20:29:13.687Z,95594.00
2022-11-04T20:30:31.944Z,95597.47
2022-11-04T20:31:43.506Z,95596.50
2022-11-04T20:33:02.155Z,95600.88
2022-11-04T20:34:26.602Z,95601.09
2022-11-04T20:35:43.192Z,95609.19
2022-11-04T20:36:58.087Z,95607.44
2022-11-04T20:38:17.031Z,95607.78
2022-11-04T20:39:36.207Z,95605.19
2022-11-04T20:40:44.130Z,95606.25
2022-11-04T20:41:52.385Z,95614.16
2022-11-04T20:42:55.123Z,95618.63
2022-11-04T20:44:21.005Z,95617.94
2022-11-04T20:45:40.878Z,95623.38
2022-11-04T20:46:51.051Z,95611.53
2022-11-04T20:47:59.409Z,95614.25
2022-11-04T20:49:16.700Z,95622.25
2022-11-04T20:50:34.110Z,95625.03
2022-11-04T20:51:55.194Z,95633.81
2022-11-04T20:53:10.806Z,95617.63
2022-11-04T20:54:28.776Z,95624.47
2022-11-04T20:55:36.683Z,95632.94
2022-11-04T20:56:41.020Z,95630.88
2022-11-04T20:57:47.289Z,95630.22
2022-11-04T20:58:55.914Z,95630.38
2022-11-04T21:00:09.225Z,95634.81
2022-11-04T21:01:22.685Z,95631.56
2022-11-04T21:02:35.816Z,95630.78
2022-11-04T21:03:40.020Z,95629.75
2022-11-04T21:04:51.687Z,95627.94
2022-11-04T21:05:59.328Z,95637.34
2022-11-04T21:07:05.122Z,95628.75
2022-11-04T21:08:19.986Z,95633.06
2022-11-04T21:09:35.105Z,95639.06
2022-11-04T21:10:49.845Z,95636.44
2022-11-04T21:11:58.113Z,95637.97
2022-11-04T21:13:15.477Z,95637.91
2022-11-04T21:14:28.105Z,95637.84
2022-11-04T21:16:07.256Z,95639.53
2022-11-04T21:17:17.181Z,95644.47
2022-11-04T21:18:38.137Z,95648.03
2022-11-04T21:19:43.766Z,95645.44
2022-11-04T21:20:54.898Z,95648.03
2022-11-04T21:22:00.576Z,95653.75
2022-11-04T21:23:07.357Z,95651.22
2022-11-04T21:24:18.816Z,95657.41
2022-11-04T21:25:26.364Z,95647.16
2022-11-04T21:26:39.152Z,95652.41
2022-11-04T21:27:48.755Z,95647.38
2022-11-04T21:28:58.891Z,95653.56
2022-11-04T21:30:13.488Z,95660.44
2022-11-04T21:31:28.937Z,95657.00
2022-11-04T21:32:50.544Z,95653.50
2022-11-04T21:34:10.325Z,95665.56
2022-11-04T21:35:19.090Z,95658.72
2022-11-04T21:37:24.209Z,95664.72
2022-11-04T21:38:29.305Z,95663.84
2022-11-04T21:39:39.286Z,95667.88
2022-11-04T21:40:42.151Z,95664.38
2022-11-04T21:41:46.944Z,95660.13
2022-11-04T21:42:49.116Z,95666.06
2022-11-04T21:43:56.798Z,95670.44
2022-11-04T21:44:59.039Z,95673.94
2022-11-04T21:46:05.451Z,95676.44
2022-11-04T21:47:10.190Z,95674.69
2022-11-04T21:48:12.749Z,95675.59
2022-11-04T21:49:17.936Z,95678.09
2022-11-04T21:50:20.382Z,95681.53
2022-11-04T21:51:29.016Z,95677.25
2022-11-04T21:52:31.815Z,95682.41
2022-11-04T21:53:37.221Z,95685.00
2022-11-04T21:54:42.089Z,95681.56
2022-11-04T21:55:47.888Z,95679.09
2022-11-04T21:56:53.930Z,95683.25
2022-11-04T21:57:56.165Z,95684.94
2022-11-04T21:59:01.084Z,95681.53
2022-11-04T22:00:04.113Z,95687.56
2022-11-04T22:01:10.231Z,95684.94
2022-11-04T22:05:58.579Z,95685.50
2022-11-04T22:07:03.266Z,95686.28
2022-11-04T22:08:18.125Z,95682.78
2022-11-04T22:09:22.748Z,95679.38
2022-11-04T22:10:29.232Z,95685.50
2022-11-04T22:11:36.518Z,95689.81
2022-11-04T22:12:38.745Z,95682.13
2022-11-04T22:13:43.502Z,95681.41
2022-11-04T22:14:45.758Z,95690.91
2022-11-04T22:16:03.339Z,95688.16
2022-11-04T22:17:08.066Z,95684.72
2022-11-04T22:18:10.226Z,95691.63
2022-11-04T22:19:16.148Z,95694.16
2022-11-04T22:20:18.377Z,95694.47
2022-11-04T22:21:23.609Z,95696.34
2022-11-04T22:22:25.712Z,95692.97
2022-11-04T22:23:30.781Z,95697.44
2022-11-04T22:24:35.421Z,95694.16
2022-11-04T22:25:40.050Z,95693.50
2022-11-04T22:26:46.193Z,95689.88
2022-11-04T22:27:48.201Z,95696.84
2022-11-04T22:28:53.429Z,95696.00
2022-11-04T22:29:55.389Z,95696.84
2022-11-04T22:31:06.785Z,95700.38
2022-11-04T22:32:11.563Z,95697.81
2022-11-04T22:33:13.776Z,95700.47
2022-11-04T22:34:18.646Z,95697.88
2022-11-04T22:35:20.667Z,95702.00
2022-11-04T22:36:26.165Z,95698.53
2022-11-04T22:37:28.155Z,95698.53
2022-11-04T22:38:34.079Z,95702.00
2022-11-04T22:39:36.142Z,95702.00
2022-11-04T22:40:44.020Z,95703.69
2022-11-04T22:41:50.464Z,95696.75
2022-11-04T22:42:55.547Z,95699.22
2022-11-04T22:44:00.395Z,95698.31
2022-11-04T22:45:02.369Z,95700.78
2022-11-04T22:46:10.075Z,95702.28
2022-11-04T22:47:12.104Z,95700.44
2022-11-04T22:48:16.717Z,95703.94
2022-11-04T22:49:21.538Z,95691.88
2022-11-04T22:50:23.520Z,95696.13
2022-11-04T22:51:28.158Z,95701.22
2022-11-04T22:52:30.177Z,95700.25
2022-11-04T22:53:34.745Z,95703.66
2022-11-04T22:54:36.791Z,95698.53
2022-11-04T22:55:44.114Z,95705.34
2022-11-04T22:56:46.171Z,95701.03
2022-11-04T22:57:50.896Z,95699.88
2022-11-04T22:58:54.330Z,95699.94
2022-11-04T22:59:59.136Z,95698.19
2022-11-04T23:01:05.342Z,95703.34
2022-11-04T23:02:10.060Z,95706.75
2022-11-04T23:03:12.696Z,95704.97
2022-11-04T23:04:17.523Z,95707.41
2022-11-04T23:05:19.886Z,95704.00
2022-11-04T23:06:25.060Z,95704.84
2022-11-04T23:07:27.287Z,95710.88
2022-11-04T23:08:33.187Z,95709.22
2022-11-04T23:09:55.213Z,95711.50
2022-11-04T23:11:15.690Z,95708.06
2022-11-04T23:12:32.815Z,95715.00
2022-11-04T23:13:49.916Z,95710.69
2022-11-04T23:15:06.928Z,95700.47
2022-11-04T23:16:26.540Z,95708.09
2022-11-04T23:17:43.583Z,95711.25
2022-11-04T23:18:51.772Z,95711.75
2022-11-04T23:19:53.792Z,95711.13
2022-11-04T23:21:10.739Z,95712.81
2022-11-04T23:22:27.855Z,95705.06
2022-11-04T23:23:44.907Z,95715.38
2022-11-04T23:25:01.935Z,95714.53
2022-11-04T23:26:09.205Z,95711.97
2022-11-04T23:27:11.400Z,95717.19
2022-11-04T23:28:28.432Z,95714.09
2022-11-04T23:29:45.529Z,95711.63
2022-11-04T23:30:56.741Z,95720.25
2022-11-04T23:31:58.795Z,95723.47
2022-11-04T23:33:04.860Z,95725.41
2022-11-04T23:34:21.909Z,95722.84
2022-11-04T23:35:42.009Z,95722.94
2022-11-04T23:36:59.045Z,95722.78
2022-11-04T23:38:03.848Z,95718.72
2022-11-04T23:39:05.850Z,95727.31
2022-11-04T23:40:12.067Z,95723.91
2022-11-04T23:41:31.747Z,95728.13
2022-11-04T23:42:36.839Z,95728.84
2022-11-04T23:43:39.696Z,95728.84
2022-11-04T23:44:57.235Z,95728.00
2022-11-04T23:46:16.432Z,95729.56
2022-11-04T23:47:48.317Z,95731.72
2022-11-04T23:49:05.371Z,95724.75
2022-11-04T23:50:24.314Z,95731.72
2022-11-04T23:51:41.344Z,95725.94
2022-11-04T23:52:58.341Z,95734.34
2022-11-04T23:54:15.348Z,95733.47
2022-11-04T23:55:32.446Z,95732.63
2022-11-04T23:56:52.094Z,95735.22
2022-11-04T23:58:09.159Z,95736.25
2022-11-04T23:59:27.514Z,95734.56
